Hudson, NY

11:02 PM EDT on October 01, 2014 (GMT -0400)
Columbia-Greene Community College | Change Station
CLOSE
Current Station
Personal Weather Station
Location: Hudson, NY
Elevation: 49 m
Nearby Weather Stations

Elev 49 m 42.22 °N, 73.83 °W | Updated 3 seconds ago

Overcast
Overcast
12.8 °C
Feels Like 12.8 °C
N
3.2
Wind Variable Wind from SSE
Gusts 4.8 km/h

Today
High -- | Low -- °C
--% Chance of Precip.
Yesterday
High -- | Low -- °C
Precip. -- mm
6:52 AM 6:36 PM
First Quarter, 54% visible
Pressure 1019 hPa
Visibility 16.1 kilometers
Clouds Mostly Cloudy 487 m
Overcast 762 m
Dew Point 13 °C
Humidity 99%
Rainfall 6 mm
Snow Depth Not available.
UV 0 out of 12
Pollen 1.20 out of 12
Ozone Good
PM2.5 Good
Flu Activity Not available.
METAR KPSF 020254Z AUTO 00000KT 10SM -RA BKN016 OVC025 13/13 A3012 RMK AO2 RAE0159B29 SLP186 P0001 60002 T01330128 50004

More Conditions Fewer Conditions

Pressure 1019 hPa
Visibility 16.1 kilometers
Clouds Mostly Cloudy 487 m
Overcast 762 m
Dew Point 13 °C
Humidity 99%
Rainfall 6 mm
Snow Depth Not available.
UV 0 out of 12
Pollen 1.20 out of 12
Ozone Good
PM2.5 Good
Flu Activity Not available.
METAR KPSF 020254Z AUTO 00000KT 10SM -RA BKN016 OVC025 13/13 A3012 RMK AO2 RAE0159B29 SLP186 P0001 60002 T01330128 50004

More Conditions Fewer Conditions

10-Day Weather Forecast

Almanac

Astronomy

Oct. 01, 2014 Rise Set
Actual Time 6:52 AM EDT 6:36 PM EDT
Civil Twilight 6:24 AM EDT 7:04 PM EDT
Nautical Twilight 5:51 AM EDT 7:37 PM EDT
Astronomical Twilight 5:18 AM EDT 8:10 PM EDT
Moon 1:55 PM EDT (10/1) No Moon Set
Length of Visible Light 12h 40m
Length of Day
11h 44m
Tomorrow will be 2m 49s shorter.
First Quarter, 54% of the Moon is Illuminated
Today
First Quarter
Oct 8
Full
Oct 15
Last Quarter
Oct 23
New
Oct 30
First Quarter

Today's Extremes

State Highs State Lows

Community

WunderPhotos

Upload Photos

1,758,157 photos uploaded!

WunderBlogs® & News

Nearby

Air Quality

  Air Quality AQ Index Pollutant
Yesterday Good
PM2.5
Yesterday Good
OZONE
Current Good
PM2.5
Current Good
OZONE
Wednesday Good
PM2.5
Thursday Good
PM2.5

Snow Depth

Station Depth Elevation
No new snow has been reported.

Earthquake Activity

City Distance Mag. Time & Date
No recent earthquake activity has been reported nearby.
Minimum magnitude displayed is 2.5.

Coastal Water Temperatures

Place Temperature
No Stations Reporting

Nearby Weather Stations